createdAt,value
2024-05-09T00:32:06.640Z,69.00
2024-05-09T00:35:32.048Z,70.00
2024-05-09T00:38:57.475Z,69.10
2024-05-09T00:42:22.726Z,69.00
2024-05-09T00:45:48.660Z,69.00
2024-05-09T00:49:17.015Z,68.90
2024-05-09T00:52:43.459Z,68.80
2024-05-09T00:56:12.476Z,68.60
2024-05-09T00:59:38.428Z,68.70
2024-05-09T01:03:04.054Z,68.60
2024-05-09T01:06:32.076Z,68.60
2024-05-09T01:09:57.327Z,68.60
2024-05-09T01:13:22.560Z,69.40
2024-05-09T01:16:48.382Z,68.70
2024-05-09T01:20:20.098Z,68.70
2024-05-09T01:23:55.112Z,68.70
2024-05-09T01:27:20.823Z,68.90
2024-05-09T01:30:46.378Z,69.00
2024-05-09T01:34:11.987Z,68.90
2024-05-09T01:37:37.388Z,68.90
2024-05-09T01:41:05.265Z,69.00
2024-05-09T01:44:30.639Z,69.00
2024-05-09T01:47:56.135Z,69.00
2024-05-09T01:51:21.583Z,69.00
2024-05-09T01:54:46.832Z,69.10
2024-05-09T01:58:15.162Z,69.10
2024-05-09T02:01:56.353Z,69.20
2024-05-09T02:05:23.238Z,69.40
2024-05-09T02:08:49.121Z,69.30
2024-05-09T02:12:14.564Z,69.30
2024-05-09T02:15:42.810Z,69.00
2024-05-09T02:19:08.241Z,70.10
2024-05-09T02:22:33.719Z,69.30
2024-05-09T02:25:59.217Z,69.20
2024-05-09T02:29:24.499Z,69.30
2024-05-09T02:32:52.446Z,69.30
2024-05-09T02:36:17.758Z,69.40
2024-05-09T02:39:40.337Z,69.20
2024-05-09T02:43:06.034Z,69.30
2024-05-09T02:46:31.540Z,69.30
2024-05-09T02:49:56.830Z,69.30
2024-05-09T02:53:22.427Z,69.40
2024-05-09T02:56:47.687Z,69.40
2024-05-09T03:00:18.494Z,69.50
2024-05-09T03:03:50.424Z,69.40
2024-05-09T03:07:20.071Z,69.50
2024-05-09T03:10:45.593Z,69.50
2024-05-09T03:14:11.044Z,69.40
2024-05-09T03:17:36.649Z,69.40
2024-05-09T03:20:59.582Z,70.30
2024-05-09T03:24:27.464Z,69.50
2024-05-09T03:27:52.754Z,69.60
2024-05-09T03:31:18.429Z,69.90
2024-05-09T03:34:44.180Z,70.00
2024-05-09T03:38:09.705Z,70.20
2024-05-09T03:41:37.761Z,70.40
2024-05-09T03:45:03.147Z,70.80
2024-05-09T03:48:28.717Z,72.90
2024-05-09T03:51:54.045Z,70.80
2024-05-09T03:55:16.676Z,70.70
2024-05-09T03:58:44.684Z,70.40
2024-05-09T04:02:10.271Z,70.30
2024-05-09T04:05:35.830Z,70.30
2024-05-09T04:09:01.624Z,70.30
2024-05-09T04:12:27.612Z,70.30
2024-05-09T04:15:55.443Z,70.40
2024-05-09T04:19:18.387Z,70.70
2024-05-09T04:22:43.829Z,70.90
2024-05-09T04:26:10.435Z,71.00
2024-05-09T04:29:37.255Z,71.40
2024-05-09T04:33:05.781Z,71.80
2024-05-09T04:36:31.442Z,73.50
2024-05-09T04:39:57.592Z,73.30
2024-05-09T04:43:22.895Z,73.90
2024-05-09T04:46:46.956Z,74.50
2024-05-09T04:50:21.226Z,75.10
2024-05-09T04:53:54.609Z,75.60
2024-05-09T04:57:19.903Z,76.40
2024-05-09T05:00:45.333Z,76.80
2024-05-09T05:04:10.703Z,76.80
2024-05-09T05:07:38.702Z,76.50
2024-05-09T05:11:03.968Z,76.00
2024-05-09T05:14:26.636Z,75.50
2024-05-09T05:17:52.104Z,75.70
2024-05-09T05:21:17.833Z,75.70
2024-05-09T05:24:45.817Z,75.80
2024-05-09T05:28:11.623Z,76.40
2024-05-09T05:31:34.489Z,77.40
2024-05-09T05:34:59.733Z,77.50
2024-05-09T05:38:26.064Z,76.30
2024-05-09T05:41:55.756Z,77.50
2024-05-09T05:45:18.607Z,77.30
2024-05-09T05:48:44.100Z,77.70
2024-05-09T05:52:07.464Z,77.50
2024-05-09T05:55:32.665Z,76.90
2024-05-09T05:59:00.566Z,76.90
2024-05-09T06:02:23.393Z,76.30
2024-05-09T06:05:48.898Z,76.70
2024-05-09T06:09:14.266Z,76.40
2024-05-09T06:12:39.223Z,75.50
2024-05-09T06:16:08.000Z,75.30
2024-05-09T06:19:31.090Z,74.80
2024-05-09T06:22:56.384Z,74.50
2024-05-09T06:26:21.675Z,74.10
2024-05-09T06:29:46.939Z,72.10
2024-05-09T06:33:16.445Z,71.70
2024-05-09T06:36:39.873Z,70.10
2024-05-09T06:40:07.308Z,72.30
2024-05-09T06:43:30.231Z,71.40
2024-05-09T06:46:58.078Z,70.70
2024-05-09T06:50:35.445Z,69.60
2024-05-09T06:54:02.870Z,69.50
2024-05-09T06:57:29.812Z,65.60
2024-05-09T07:00:52.555Z,65.30
2024-05-09T07:04:18.046Z,66.20
2024-05-09T07:11:08.979Z,66.70
2024-05-09T07:14:36.011Z,66.30
2024-05-09T07:18:03.041Z,64.30
2024-05-09T07:21:28.535Z,63.90
2024-05-09T07:24:53.758Z,63.20
2024-05-09T07:28:20.828Z,61.50
2024-05-09T07:31:46.057Z,62.10
2024-05-09T07:35:11.555Z,61.30
2024-05-09T07:38:37.022Z,61.10
2024-05-09T07:45:45.002Z,60.30
2024-05-09T07:50:55.167Z,59.40
2024-05-09T07:53:36.094Z,57.70
2024-05-09T07:56:46.092Z,58.00
2024-05-09T08:00:17.256Z,57.90
2024-05-09T08:03:45.630Z,56.50
2024-05-09T08:07:11.255Z,57.30
2024-05-09T08:10:35.244Z,56.80
2024-05-09T08:14:00.568Z,56.30
2024-05-09T08:17:25.905Z,56.00
2024-05-09T08:20:51.829Z,54.80
2024-05-09T08:24:16.991Z,54.70
2024-05-09T08:27:41.139Z,54.10
2024-05-09T08:31:07.316Z,54.10
2024-05-09T08:34:32.855Z,53.90
2024-05-09T08:37:58.220Z,52.70
2024-05-09T08:41:23.592Z,52.40
2024-05-09T08:44:51.914Z,52.30
2024-05-09T08:48:18.948Z,52.20
2024-05-09T08:51:47.603Z,52.30
2024-05-09T08:55:13.631Z,50.60
2024-05-09T08:58:40.439Z,50.70
2024-05-09T09:02:06.025Z,50.60
2024-05-09T09:05:35.960Z,50.20
2024-05-09T09:09:03.373Z,49.20
2024-05-09T09:12:28.674Z,48.60
2024-05-09T09:15:57.775Z,49.40
2024-05-09T09:19:26.145Z,49.10
2024-05-09T09:22:51.431Z,48.90
2024-05-09T09:26:18.958Z,47.90
2024-05-09T09:29:45.144Z,46.30
2024-05-09T09:33:10.220Z,46.20
2024-05-09T09:36:38.859Z,46.60
2024-05-09T09:40:07.083Z,47.60
2024-05-09T09:43:33.292Z,48.00
2024-05-09T09:47:01.335Z,47.20
2024-05-09T09:50:33.275Z,47.10
2024-05-09T09:54:01.659Z,46.40
2024-05-09T09:57:26.275Z,46.00
2024-05-09T10:00:54.258Z,44.20
2024-05-09T10:04:21.202Z,42.40
2024-05-09T10:07:49.272Z,42.10
2024-05-09T10:11:14.715Z,43.40
2024-05-09T10:14:48.071Z,42.90
2024-05-09T10:18:16.343Z,43.10
2024-05-09T10:21:49.746Z,44.80
2024-05-09T10:25:14.801Z,44.70
2024-05-09T10:28:46.544Z,45.30
2024-05-09T10:32:12.036Z,43.40
2024-05-09T10:35:37.274Z,42.60
2024-05-09T10:39:03.069Z,42.30
2024-05-09T10:42:29.383Z,44.10
2024-05-09T10:45:52.662Z,45.30
2024-05-09T10:49:18.203Z,45.80
2024-05-09T10:52:46.087Z,45.40
2024-05-09T10:56:09.709Z,44.50
2024-05-09T10:59:42.461Z,45.30
2024-05-09T11:03:08.650Z,45.00
2024-05-09T11:06:36.055Z,44.60
2024-05-09T11:10:02.081Z,42.70
2024-05-09T11:13:31.856Z,42.20
2024-05-09T11:17:03.935Z,43.10
2024-05-09T11:20:37.498Z,44.10
2024-05-09T11:24:03.296Z,43.90
2024-05-09T11:27:28.597Z,44.80
2024-05-09T11:30:54.427Z,43.50
2024-05-09T11:34:17.148Z,43.00
2024-05-09T11:37:42.757Z,42.00
2024-05-09T11:41:06.153Z,41.20
2024-05-09T11:44:34.021Z,40.10
2024-05-09T11:47:59.484Z,39.50
2024-05-09T11:51:24.696Z,40.50
2024-05-09T11:54:49.940Z,40.30
2024-05-09T11:58:14.764Z,41.10
2024-05-09T12:01:42.941Z,41.20
2024-05-09T12:05:06.031Z,40.90
2024-05-09T12:08:32.156Z,41.50
2024-05-09T12:11:54.945Z,41.10
2024-05-09T12:15:20.091Z,40.90
2024-05-09T12:18:48.014Z,40.90
2024-05-09T12:22:13.392Z,40.90
2024-05-09T12:25:39.665Z,42.00
2024-05-09T12:29:02.647Z,43.20
2024-05-09T12:32:28.347Z,43.30
2024-05-09T12:35:53.943Z,42.80
2024-05-09T12:39:19.211Z,41.90
2024-05-09T12:42:41.972Z,42.20
2024-05-09T12:46:07.767Z,43.00
2024-05-09T12:49:33.213Z,43.60
2024-05-09T12:53:02.092Z,41.60
2024-05-09T12:56:28.212Z,42.20
2024-05-09T12:59:50.960Z,41.90
2024-05-09T13:03:16.394Z,41.50
2024-05-09T13:06:39.274Z,41.20
2024-05-09T13:10:13.907Z,41.30
2024-05-09T13:13:41.590Z,42.70
2024-05-09T13:17:07.841Z,43.10
2024-05-09T13:20:35.335Z,43.00
2024-05-09T13:24:01.329Z,43.50
2024-05-09T13:27:26.898Z,43.60
2024-05-09T13:30:52.128Z,43.40
2024-05-09T13:34:17.493Z,43.10
2024-05-09T13:37:43.136Z,43.10
2024-05-09T13:41:08.513Z,41.90
2024-05-09T13:44:36.384Z,40.80
2024-05-09T13:47:59.421Z,39.70
2024-05-09T13:51:24.836Z,39.80
2024-05-09T13:54:47.902Z,39.60
2024-05-09T13:58:13.323Z,39.60
2024-05-09T14:01:41.434Z,39.50
2024-05-09T14:05:07.452Z,39.10
2024-05-09T14:08:33.004Z,39.70
2024-05-09T14:11:58.318Z,40.00
2024-05-09T14:15:21.200Z,40.30
2024-05-09T14:18:49.202Z,40.60
2024-05-09T14:22:12.070Z,40.30
2024-05-09T14:25:41.996Z,40.50
2024-05-09T14:29:08.875Z,40.50
2024-05-09T14:32:31.711Z,40.40
2024-05-09T14:36:02.071Z,40.30
2024-05-09T14:39:27.395Z,40.00
2024-05-09T14:42:52.694Z,40.00
2024-05-09T14:46:15.665Z,40.00
2024-05-09T14:49:41.124Z,40.20
2024-05-09T14:53:07.537Z,40.30
2024-05-09T14:56:33.408Z,40.70
2024-05-09T14:59:56.132Z,41.20
2024-05-09T15:03:22.368Z,41.20
2024-05-09T15:06:48.629Z,41.20
2024-05-09T15:10:26.529Z,41.60
2024-05-09T15:14:00.061Z,41.20
2024-05-09T15:17:23.143Z,41.20
2024-05-09T15:20:48.918Z,41.00
2024-05-09T15:24:14.432Z,40.80
2024-05-09T15:27:42.559Z,40.70
2024-05-09T15:31:08.031Z,40.60
2024-05-09T15:34:33.489Z,40.50
2024-05-09T15:37:56.751Z,41.00
2024-05-09T15:41:22.041Z,41.30
2024-05-09T15:44:52.951Z,41.00
2024-05-09T15:48:15.821Z,41.10
2024-05-09T15:51:41.243Z,41.50
2024-05-09T15:55:04.502Z,41.70
2024-05-09T15:58:30.944Z,41.90
2024-05-09T16:01:59.110Z,41.80
2024-05-09T16:05:24.620Z,41.60
2024-05-09T16:08:49.936Z,41.80
2024-05-09T16:12:12.712Z,41.60
2024-05-09T16:15:38.144Z,41.50
2024-05-09T16:19:03.652Z,41.60
2024-05-09T16:22:29.012Z,41.50
2024-05-09T16:25:52.037Z,41.80
2024-05-09T16:29:17.682Z,41.70
2024-05-09T16:32:44.050Z,41.70
2024-05-09T16:36:12.544Z,41.90
2024-05-09T16:39:37.954Z,41.70
2024-05-09T16:43:03.656Z,41.90
2024-05-09T16:46:29.194Z,41.70
2024-05-09T16:49:51.909Z,41.70
2024-05-09T16:53:20.408Z,41.80
2024-05-09T16:56:45.814Z,41.80
2024-05-09T17:00:18.317Z,41.90
2024-05-09T17:03:50.288Z,41.90
2024-05-09T17:07:16.075Z,41.80
2024-05-09T17:10:44.107Z,41.20
2024-05-09T17:14:09.544Z,41.90
2024-05-09T17:17:34.988Z,42.10
2024-05-09T17:21:00.323Z,42.80
2024-05-09T17:24:25.567Z,42.20
2024-05-09T17:27:51.075Z,42.10
2024-05-09T17:31:17.593Z,42.10
2024-05-09T17:34:43.031Z,42.20
2024-05-09T17:38:06.672Z,42.20
2024-05-09T17:41:32.118Z,42.20
2024-05-09T17:45:00.254Z,42.20
2024-05-09T17:48:25.857Z,42.20
2024-05-09T17:51:52.148Z,42.20
2024-05-09T17:55:17.921Z,42.20
2024-05-09T17:58:40.769Z,42.30
2024-05-09T18:02:09.103Z,42.20
2024-05-09T18:05:32.171Z,42.10
2024-05-09T18:08:57.583Z,42.30
2024-05-09T18:12:22.844Z,42.20
2024-05-09T18:15:48.225Z,42.30
2024-05-09T18:19:16.254Z,42.30
2024-05-09T18:22:41.702Z,42.20
2024-05-09T18:26:08.645Z,42.30
2024-05-09T18:29:31.427Z,42.40
2024-05-09T18:32:56.803Z,42.30
2024-05-09T18:36:22.701Z,42.40
2024-05-09T18:39:47.890Z,42.40
2024-05-09T18:43:13.310Z,42.60
2024-05-09T18:46:39.044Z,42.60
2024-05-09T18:50:08.879Z,42.70
2024-05-09T18:53:40.463Z,42.80
2024-05-09T18:57:04.816Z,42.90
2024-05-09T19:00:35.755Z,43.00
2024-05-09T19:04:04.180Z,43.10
2024-05-09T19:07:27.006Z,43.00
2024-05-09T19:10:55.012Z,43.10
2024-05-09T19:14:21.252Z,43.20
2024-05-09T19:17:46.528Z,43.30
2024-05-09T19:21:14.229Z,43.40
2024-05-09T19:24:39.461Z,43.60
2024-05-09T19:28:06.152Z,43.60
2024-05-09T19:31:31.461Z,43.80
2024-05-09T19:34:54.965Z,43.80
2024-05-09T19:38:20.425Z,44.00
2024-05-09T19:41:45.626Z,44.20
2024-05-09T19:45:11.229Z,44.40
2024-05-09T19:48:36.610Z,44.40
2024-05-09T19:51:59.342Z,44.70
2024-05-09T19:55:24.642Z,44.70
2024-05-09T19:58:49.924Z,44.90
2024-05-09T20:02:18.038Z,45.00
2024-05-09T20:05:46.291Z,45.20
2024-05-09T20:09:12.110Z,45.30
2024-05-09T20:12:35.128Z,45.30
2024-05-09T20:16:01.255Z,45.50
2024-05-09T20:19:26.658Z,45.60
2024-05-09T20:22:51.926Z,46.40
2024-05-09T20:26:14.567Z,46.30
2024-05-09T20:29:39.741Z,45.80
2024-05-09T20:33:05.273Z,46.00
2024-05-09T20:36:34.809Z,46.10
2024-05-09T20:39:57.732Z,46.30
2024-05-09T20:43:23.054Z,46.40
2024-05-09T20:46:45.980Z,46.50
2024-05-09T20:50:20.559Z,46.50
2024-05-09T20:53:56.742Z,46.70
2024-05-09T20:57:19.458Z,46.80
2024-05-09T21:00:46.440Z,46.70
2024-05-09T21:04:09.856Z,46.80
2024-05-09T21:07:35.431Z,46.90
2024-05-09T21:11:03.311Z,46.90
2024-05-09T21:14:26.022Z,47.00
2024-05-09T21:17:51.222Z,47.00
2024-05-09T21:21:13.967Z,47.10
2024-05-09T22:33:11.354Z,47.10
2024-05-09T22:36:37.500Z,48.40
2024-05-09T22:40:06.276Z,48.50
2024-05-09T22:43:29.522Z,48.60
2024-05-09T22:46:54.786Z,48.70
2024-05-09T22:50:26.248Z,48.60
2024-05-09T22:53:55.024Z,48.80
2024-05-09T22:57:20.296Z,48.90
2024-05-09T23:00:45.767Z,48.90
2024-05-09T23:04:09.498Z,49.00
2024-05-09T23:07:34.720Z,49.10
2024-05-09T23:11:02.641Z,49.20
2024-05-09T23:14:27.877Z,49.30
2024-05-09T23:17:50.776Z,49.30
2024-05-09T23:21:16.004Z,49.50
2024-05-09T23:24:39.616Z,49.50
2024-05-09T23:28:08.263Z,49.60
2024-05-09T23:31:31.057Z,49.80
2024-05-09T23:34:56.388Z,49.80
2024-05-09T23:38:23.748Z,49.70
2024-05-09T23:41:46.673Z,50.00
2024-05-09T23:45:14.585Z,49.80
2024-05-09T23:48:40.031Z,50.20
2024-05-09T23:52:05.405Z,50.20
2024-05-09T23:55:31.803Z,50.20
2024-05-09T23:58:54.798Z,50.30
